Umar 1 — 9HA2498 — position and weather

sailwx.info

Track history (hours):
 
Tides and Currents Weather Stations Pressure Air Temp Water Temp Dewpoint Dewpoint Depression Visibility Wind Speed Wind Dir Waves Ship Positions

Umar 1

Last reported at 2018-Jul-14 16:57 UTC. Time now 2018-Aug-14 19:28 UTC.
Position N 37°51' E 025°40'.
Warning: this ship's position is 31 days out of date.

Length 97 m; draft 5.3 m.

Type: Ship (hazmat cat B). MMSI: 248751000.

Date/timePositionNaut miles runAvg speedWind from/ knotsBaromVisibWave heightAir tempDewpointWater temp
2018-Jul-14 16:57N 37°51' E 025°40'23 8.8
2018-Jul-14 14:23N 37°30' E 025°50'7 7.7
2018-Jul-14 13:30N 37°25' E 025°55'  
2018-Jul-12 02:08N 32°56' E 034°49'110.3
2018-Jul-12 02:00N 32°56' E 034°51'5 9.8
2018-Jul-12 01:30N 32°54' E 034°56'4 0.2
2018-Jul-11 02:24N 32°53' E 035°01'0 0.0
2018-Jul-11 01:48N 32°53' E 035°01'0 0.0
2018-Jul-10 16:42N 32°53' E 035°01'0 0.0
2018-Jul-10 16:25N 32°53' E 035°01'0 0.0
2018-Jul-10 02:24N 32°53' E 035°01'0 0.0
2018-Jul-10 02:00N 32°53' E 035°01'0 0.0
2018-Jul-10 01:18N 32°53' E 035°01'0 0.0
2018-Jul-09 21:06N 32°53' E 035°01'0 0.0
2018-Jul-09 15:54N 32°53' E 035°01'2 0.1
2018-Jul-08 12:27N 32°52' E 034°59'1 2.8
2018-Jul-08 11:56N 32°53' E 034°58'0 0.4
2018-Jul-08 11:30N 32°53' E 034°58'0 0.9
2018-Jul-08 10:57N 32°53' E 034°57'1 1.1
2018-Jul-08 10:28N 32°53' E 034°57'3 5.7
2018-Jul-08 10:00N 32°53' E 034°54'122 8.0
2018-Jul-07 18:41N 31°52' E 032°48'9 9.9
2018-Jul-07 17:45N 31°44' E 032°43'310.6
2018-Jul-07 17:30N 31°43' E 032°40'20 9.8
2018-Jul-07 15:31N 31°31' E 032°22'116 2.6
2018-Jul-05 19:18N 33°05' E 033°42'1710.0
2018-Jul-05 17:35N 33°02' E 034°02'110.4
2018-Jul-05 17:29N 33°02' E 034°03'510.5
2018-Jul-05 16:58N 33°01' E 034°10'510.7
2018-Jul-05 16:29N 33°00' E 034°16'610.7
2018-Jul-05 15:57N 32°59' E 034°23'610.6
2018-Jul-05 15:21N 32°58' E 034°30'410.6
2018-Jul-05 15:00N 32°57' E 034°34'1510.2
2018-Jul-05 13:30N 32°54' E 034°52'510.0
2018-Jul-05 12:59N 32°52' E 034°58'  
Track history (hours):
 
Tides and Currents Weather Stations Pressure Air Temp Water Temp Dewpoint Dewpoint Depression Visibility Wind Speed Wind Dir Waves Ship Positions

Umar 1

Last reported at 2018-Jul-14 16:57 UTC. Time now 2018-Aug-14 19:28 UTC.
Position N 37°51' E 025°40'.
Warning: this ship's position is 31 days out of date.

Length 97 m; draft 5.3 m.

Type: Ship (hazmat cat B). MMSI: 248751000.

Date/timePositionNaut miles runAvg speedWind from/ knotsBaromVisibWave heightAir tempDewpointWater temp
2018-Jul-14 16:57N 37°51' E 025°40'23 8.8
2018-Jul-14 14:23N 37°30' E 025°50'7 7.7
2018-Jul-14 13:30N 37°25' E 025°55'  
2018-Jul-12 02:08N 32°56' E 034°49'110.3
2018-Jul-12 02:00N 32°56' E 034°51'5 9.8
2018-Jul-12 01:30N 32°54' E 034°56'4 0.2
2018-Jul-11 02:24N 32°53' E 035°01'0 0.0
2018-Jul-11 01:48N 32°53' E 035°01'0 0.0
2018-Jul-10 16:42N 32°53' E 035°01'0 0.0
2018-Jul-10 16:25N 32°53' E 035°01'0 0.0
2018-Jul-10 02:24N 32°53' E 035°01'0 0.0
2018-Jul-10 02:00N 32°53' E 035°01'0 0.0
2018-Jul-10 01:18N 32°53' E 035°01'0 0.0
2018-Jul-09 21:06N 32°53' E 035°01'0 0.0
2018-Jul-09 15:54N 32°53' E 035°01'2 0.1
2018-Jul-08 12:27N 32°52' E 034°59'1 2.8
2018-Jul-08 11:56N 32°53' E 034°58'0 0.4
2018-Jul-08 11:30N 32°53' E 034°58'0 0.9
2018-Jul-08 10:57N 32°53' E 034°57'1 1.1
2018-Jul-08 10:28N 32°53' E 034°57'3 5.7
2018-Jul-08 10:00N 32°53' E 034°54'122 8.0
2018-Jul-07 18:41N 31°52' E 032°48'9 9.9
2018-Jul-07 17:45N 31°44' E 032°43'310.6
2018-Jul-07 17:30N 31°43' E 032°40'20 9.8
2018-Jul-07 15:31N 31°31' E 032°22'116 2.6
2018-Jul-05 19:18N 33°05' E 033°42'1710.0
2018-Jul-05 17:35N 33°02' E 034°02'110.4
2018-Jul-05 17:29N 33°02' E 034°03'510.5
2018-Jul-05 16:58N 33°01' E 034°10'510.7
2018-Jul-05 16:29N 33°00' E 034°16'610.7
2018-Jul-05 15:57N 32°59' E 034°23'610.6
2018-Jul-05 15:21N 32°58' E 034°30'410.6
2018-Jul-05 15:00N 32°57' E 034°34'1510.2
2018-Jul-05 13:30N 32°54' E 034°52'510.0
2018-Jul-05 12:59N 32°52' E 034°58'  

Dump ship's entire track history